Time;durP1;ratioP1;P1;durP2;ratioP2;P2;SDS_P1;SDS_P2;PMS_P1;PMS_P2;Temp;Humidity;BMP_temperature;BMP_pressure;BME280_temperature;BME280_humidity;BME280_pressure;Samples;Min_cycle;Max_cycle;Signal;HPM_P1;HPM_P2
2023/04/02 00:00:31;;;;;;;14.07;11.55;;;8.10;99.90;;;;;;5034863;28;20182;-83
2023/04/02 00:03:07;;;;;;;14.43;10.55;;;8.10;99.90;;;;;;5035252;28;20182;-84
2023/04/02 00:05:49;;;;;;;11.93;9.25;;;8.10;99.90;;;;;;5035391;28;20173;-82
2023/04/02 00:08:39;;;;;;;12.65;10.88;;;8.00;99.90;;;;;;5035040;28;20173;-83
2023/04/02 00:11:06;;;;;;;11.55;9.88;;;8.00;99.90;;;;;;5034429;28;20217;-83
2023/04/02 00:13:35;;;;;;;12.20;9.82;;;7.90;99.90;;;;;;5034702;28;20186;-83
2023/04/02 00:16:04;;;;;;;14.57;10.98;;;7.90;99.90;;;;;;5034513;28;20229;-83
2023/04/02 00:18:31;;;;;;;13.55;10.50;;;8.00;99.90;;;;;;5034742;28;20175;-84
2023/04/02 00:21:09;;;;;;;14.07;11.43;;;7.90;99.90;;;;;;5034548;28;20170;-85
2023/04/02 00:23:37;;;;;;;16.80;11.05;;;7.90;99.90;;;;;;5034747;28;20178;-84
2023/04/02 00:26:26;;;;;;;16.55;11.95;;;7.90;99.90;;;;;;5034350;28;20185;-85
2023/04/02 00:28:52;;;;;;;12.88;10.82;;;7.90;99.90;;;;;;5033877;28;20197;-84
2023/04/02 00:31:19;;;;;;;12.30;10.10;;;7.90;99.90;;;;;;5034116;28;20192;-84
2023/04/02 00:33:45;;;;;;;14.82;10.90;;;7.90;99.90;;;;;;5034563;28;20543;-83
2023/04/02 00:36:11;;;;;;;13.52;10.95;;;7.80;99.90;;;;;;5034427;28;20182;-84
2023/04/02 00:38:39;;;;;;;11.40;9.17;;;7.80;99.90;;;;;;5034627;28;20174;-84
2023/04/02 00:41:06;;;;;;;12.85;8.20;;;7.80;99.90;;;;;;5034541;28;20470;-83
2023/04/02 00:43:38;;;;;;;8.65;7.78;;;7.80;99.90;;;;;;5034741;28;20174;-84
2023/04/02 00:46:14;;;;;;;7.00;6.35;;;7.80;99.90;;;;;;5034303;28;20178;-83
2023/04/02 00:48:53;;;;;;;5.93;5.32;;;7.70;99.90;;;;;;5034565;28;20220;-83
2023/04/02 00:51:23;;;;;;;5.93;5.32;;;7.70;99.90;;;;;;5034192;28;20182;-83
2023/04/02 00:53:52;;;;;;;6.40;5.60;;;7.70;99.90;;;;;;5034616;28;20170;-83
2023/04/02 00:56:29;;;;;;;8.43;7.53;;;7.70;99.90;;;;;;5034671;28;20273;-82
2023/04/02 00:58:57;;;;;;;11.13;7.97;;;7.70;99.90;;;;;;5035319;28;20525;-84
2023/04/02 01:01:26;;;;;;;11.70;9.80;;;7.70;99.90;;;;;;5034972;28;20187;-83
2023/04/02 01:04:00;;;;;;;14.52;11.63;;;7.70;99.90;;;;;;5034962;28;20180;-82
2023/04/02 01:06:33;;;;;;;12.55;10.90;;;7.70;99.90;;;;;;5034833;28;20182;-83
2023/04/02 01:09:10;;;;;;;14.98;10.70;;;7.70;99.90;;;;;;5033866;28;20236;-83
2023/04/02 01:11:45;;;;;;;11.18;9.82;;;7.70;99.90;;;;;;5034578;28;20180;-82
2023/04/02 01:14:47;;;;;;;10.32;8.10;;;7.70;99.90;;;;;;5034378;28;20180;-83
2023/04/02 01:17:36;;;;;;;9.50;7.20;;;7.60;99.90;;;;;;5034655;28;20185;-82
2023/04/02 01:20:55;;;;;;;7.22;5.95;;;7.60;99.90;;;;;;5034251;28;20223;-83
2023/04/02 01:24:07;;;;;;;6.07;5.43;;;7.50;99.90;;;;;;5016444;28;20214;-82
2023/04/02 01:27:07;;;;;;;6.28;5.30;;;7.50;99.90;;;;;;5008984;28;20659;-82
2023/04/02 01:29:44;;;;;;;4.18;3.78;;;7.50;99.90;;;;;;5038617;28;20217;-81
2023/04/02 01:32:13;;;;;;;5.22;4.72;;;7.40;99.90;;;;;;5038086;28;20186;-82
2023/04/02 01:34:40;;;;;;;4.78;4.10;;;7.40;99.90;;;;;;5038614;28;20174;-82
2023/04/02 01:37:26;;;;;;;5.88;4.90;;;7.40;99.90;;;;;;5038790;28;20178;-82
2023/04/02 01:40:11;;;;;;;5.10;4.60;;;7.30;99.90;;;;;;5037260;28;20182;-82
2023/04/02 01:42:57;;;;;;;4.43;4.03;;;7.30;99.90;;;;;;5038399;28;20192;-82
2023/04/02 01:45:23;;;;;;;6.97;5.13;;;7.30;99.90;;;;;;5038182;28;20264;-82
2023/04/02 01:47:50;;;;;;;4.85;4.40;;;7.20;99.90;;;;;;5038311;28;20665;-82
2023/04/02 01:50:20;;;;;;;4.63;4.22;;;7.20;99.90;;;;;;5037586;28;20292;-82
2023/04/02 01:52:50;;;;;;;7.68;4.93;;;7.30;99.90;;;;;;5037337;28;20187;-82
2023/04/02 01:55:23;;;;;;;7.32;5.13;;;7.30;99.90;;;;;;5037966;28;20608;-82
2023/04/02 01:57:52;;;;;;;5.13;4.40;;;7.30;99.90;;;;;;5038394;28;20617;-82
2023/04/02 02:00:19;;;;;;;7.47;4.82;;;7.20;99.90;;;;;;5037810;28;20240;-82
2023/04/02 02:02:49;;;;;;;6.32;5.32;;;7.20;99.90;;;;;;5038288;28;20240;-82
2023/04/02 02:05:17;;;;;;;5.43;4.55;;;7.20;99.90;;;;;;5037671;28;20173;-82
2023/04/02 02:07:44;;;;;;;5.22;4.75;;;7.20;99.90;;;;;;5037784;28;20221;-82
2023/04/02 02:10:24;;;;;;;4.93;4.38;;;7.20;99.90;;;;;;5037520;28;20634;-82
2023/04/02 02:12:51;;;;;;;5.20;4.70;;;7.20;99.90;;;;;;5037824;28;20181;-82
2023/04/02 02:15:19;;;;;;;5.05;4.55;;;7.10;99.90;;;;;;5037692;28;20553;-82
2023/04/02 02:17:46;;;;;;;5.68;5.18;;;7.20;99.90;;;;;;5037737;28;20189;-80
2023/04/02 02:20:13;;;;;;;5.28;4.78;;;7.20;99.90;;;;;;5035834;28;20197;-83
2023/04/02 02:22:50;;;;;;;5.97;5.30;;;7.20;99.90;;;;;;5038020;28;20182;-82
2023/04/02 02:25:21;;;;;;;6.10;5.50;;;7.20;99.90;;;;;;5037671;28;20232;-82
2023/04/02 02:28:00;;;;;;;5.25;4.75;;;7.20;99.90;;;;;;5037495;28;20579;-82
2023/04/02 02:30:31;;;;;;;4.82;4.43;;;7.10;99.90;;;;;;5037365;28;20266;-81
2023/04/02 02:33:00;;;;;;;5.43;4.95;;;7.10;99.90;;;;;;5036953;28;20580;-82
2023/04/02 02:35:48;;;;;;;4.57;3.95;;;7.10;99.90;;;;;;5037291;28;20264;-81
2023/04/02 02:38:38;;;;;;;3.97;3.58;;;7.00;99.90;;;;;;5036827;28;20193;-82
2023/04/02 02:41:11;;;;;;;4.13;3.72;;;7.10;99.90;;;;;;5037090;28;20259;-82
2023/04/02 02:43:40;;;;;;;3.65;3.35;;;7.00;99.90;;;;;;5037171;28;20195;-82
2023/04/02 02:46:09;;;;;;;4.35;3.90;;;7.00;99.90;;;;;;5036920;28;20184;-82
2023/04/02 02:48:37;;;;;;;4.32;3.50;;;7.00;99.90;;;;;;5035794;28;20189;-81
2023/04/02 02:51:08;;;;;;;3.33;2.90;;;6.90;99.90;;;;;;5035674;28;20223;-83
2023/04/02 02:53:52;;;;;;;3.50;2.97;;;6.90;99.90;;;;;;5037317;28;20531;-81
2023/04/02 02:56:21;;;;;;;4.40;3.03;;;7.00;99.90;;;;;;5036915;28;20272;-81
2023/04/02 02:58:50;;;;;;;11.73;4.25;;;7.00;99.90;;;;;;5037210;28;20191;-81
2023/04/02 03:01:17;;;;;;;5.15;4.65;;;7.00;99.90;;;;;;5036664;28;20182;-81
2023/04/02 03:03:44;;;;;;;4.90;4.50;;;6.90;99.90;;;;;;5037617;28;20258;-81
2023/04/02 03:06:15;;;;;;;4.72;4.30;;;6.90;99.90;;;;;;5036400;28;20355;-81
2023/04/02 03:08:47;;;;;;;5.20;4.70;;;6.90;99.90;;;;;;5036845;28;20186;-81
2023/04/02 03:11:37;;;;;;;6.97;4.90;;;6.90;99.90;;;;;;5036855;28;20178;-81
2023/04/02 03:14:21;;;;;;;5.72;5.22;;;6.90;99.90;;;;;;5036383;28;20637;-81
2023/04/02 03:16:52;;;;;;;4.30;3.90;;;6.80;99.90;;;;;;5036821;28;20176;-81
2023/04/02 03:20:07;;;;;;;4.72;4.00;;;6.80;99.90;;;;;;5035370;28;20220;-81
2023/04/02 03:23:06;;;;;;;4.07;3.70;;;6.80;99.90;;;;;;5013852;28;20259;-81
2023/04/02 03:25:40;;;;;;;6.53;5.82;;;6.80;99.90;;;;;;5037053;28;20638;-81
2023/04/02 03:28:13;;;;;;;10.30;8.15;;;6.80;99.90;;;;;;5036863;28;20235;-84
2023/04/02 03:30:58;;;;;;;9.60;8.02;;;6.80;99.90;;;;;;5036694;28;20211;-81
2023/04/02 03:33:30;;;;;;;9.77;8.77;;;6.80;99.90;;;;;;5036829;28;20170;-81
2023/04/02 03:36:09;;;;;;;9.27;8.27;;;6.80;99.90;;;;;;5036620;28;20228;-81
2023/04/02 03:38:43;;;;;;;7.60;6.90;;;6.70;99.90;;;;;;5036597;28;20235;-81
2023/04/02 03:41:28;;;;;;;6.78;6.10;;;6.70;99.90;;;;;;5036359;28;20498;-81
2023/04/02 03:44:00;;;;;;;6.85;6.15;;;6.60;99.90;;;;;;5035615;28;20549;-81
2023/04/02 03:46:34;;;;;;;7.68;6.00;;;6.60;99.90;;;;;;5036101;28;20683;-81
2023/04/02 03:49:10;;;;;;;6.40;5.70;;;6.50;99.90;;;;;;5036524;28;20181;-81
2023/04/02 03:52:02;;;;;;;5.53;5.03;;;6.50;99.90;;;;;;5036520;28;20182;-81
2023/04/02 03:54:28;;;;;;;4.78;4.38;;;6.60;99.90;;;;;;5036338;28;20643;-81
2023/04/02 03:56:54;;;;;;;5.13;4.45;;;6.50;99.90;;;;;;5036431;28;20182;-81
2023/04/02 03:59:43;;;;;;;5.53;4.67;;;6.50;99.90;;;;;;5036144;28;20247;-81
2023/04/02 04:02:37;;;;;;;6.10;5.32;;;6.50;99.90;;;;;;5035897;28;20242;-82
2023/04/02 04:05:05;;;;;;;5.07;4.50;;;6.40;99.90;;;;;;5036179;28;20264;-81
2023/04/02 04:07:40;;;;;;;4.63;4.18;;;6.40;99.90;;;;;;5035703;28;20271;-81
2023/04/02 04:10:14;;;;;;;5.20;4.70;;;6.40;99.90;;;;;;5036041;28;20214;-81
2023/04/02 04:12:45;;;;;;;6.43;5.68;;;6.30;99.90;;;;;;5035827;28;20324;-81
2023/04/02 04:15:48;;;;;;;5.68;4.85;;;6.30;99.90;;;;;;5035271;28;20230;-81
2023/04/02 04:18:23;;;;;;;5.90;5.30;;;6.30;99.90;;;;;;5035753;28;20220;-79
2023/04/02 04:21:00;;;;;;;6.28;5.68;;;6.20;99.90;;;;;;5035730;28;20173;-81
2023/04/02 04:23:32;;;;;;;5.30;4.80;;;6.20;99.90;;;;;;5035385;28;20177;-81
2023/04/02 04:26:23;;;;;;;6.07;5.25;;;6.20;99.90;;;;;;5035768;28;20257;-80
2023/04/02 04:29:12;;;;;;;6.75;6.05;;;6.10;99.90;;;;;;5035464;28;20202;-78
2023/04/02 04:31:54;;;;;;;6.18;5.57;;;6.10;99.90;;;;;;5035335;28;20245;-81
2023/04/02 04:34:37;;;;;;;7.90;6.43;;;6.10;99.90;;;;;;5035556;28;20180;-81
2023/04/02 04:37:06;;;;;;;6.95;5.35;;;6.10;99.90;;;;;;5035550;28;20174;-80
2023/04/02 04:39:44;;;;;;;6.32;5.72;;;6.10;99.90;;;;;;5035515;28;20633;-81
2023/04/02 04:42:20;;;;;;;7.40;6.70;;;6.10;99.90;;;;;;5035307;28;20186;-81
2023/04/02 04:45:11;;;;;;;7.32;6.43;;;6.00;99.90;;;;;;5035905;28;20690;-80
2023/04/02 04:47:46;;;;;;;6.43;5.82;;;6.00;99.90;;;;;;5035698;28;20530;-81
2023/04/02 04:50:32;;;;;;;9.25;7.35;;;6.00;99.90;;;;;;5035392;28;20221;-82
2023/04/02 04:53:06;;;;;;;7.35;6.65;;;6.00;99.90;;;;;;5035755;28;20181;-81
2023/04/02 04:55:44;;;;;;;7.22;6.30;;;6.00;99.90;;;;;;5034965;28;20442;-81
2023/04/02 04:58:35;;;;;;;9.95;7.38;;;6.00;99.90;;;;;;5035601;28;20181;-79
2023/04/02 05:01:03;;;;;;;8.45;7.63;;;6.00;99.90;;;;;;5035466;28;20174;-79
2023/04/02 05:03:38;;;;;;;10.13;7.07;;;6.00;99.90;;;;;;5035506;28;20184;-79
2023/04/02 05:06:39;;;;;;;8.10;7.30;;;6.00;99.90;;;;;;5035314;28;20188;-79
2023/04/02 05:09:40;;;;;;;7.05;6.22;;;6.00;99.90;;;;;;5032517;28;20626;-81
2023/04/02 05:12:11;;;;;;;7.60;6.50;;;5.90;99.90;;;;;;5018712;28;20194;-81
2023/04/02 05:14:46;;;;;;;6.25;5.65;;;5.80;99.90;;;;;;5034272;28;20238;-81
2023/04/02 05:17:29;;;;;;;7.45;6.65;;;5.80;99.90;;;;;;5035568;28;20506;-82
2023/04/02 05:20:19;;;;;;;7.50;6.15;;;5.80;99.90;;;;;;5035413;28;20185;-81
2023/04/02 05:23:09;;;;;;;8.25;7.45;;;5.80;99.90;;;;;;5027601;28;20203;-81
2023/04/02 05:25:36;;;;;;;8.80;7.90;;;5.80;99.90;;;;;;5034825;28;20174;-81
2023/04/02 05:28:17;;;;;;;7.78;6.72;;;5.80;99.90;;;;;;5035036;28;20274;-80
2023/04/02 05:31:16;;;;;;;10.25;8.20;;;5.80;99.90;;;;;;5035213;28;20202;-79
2023/04/02 05:33:46;;;;;;;10.10;9.07;;;5.80;99.90;;;;;;5035728;28;20178;-78
2023/04/02 05:36:28;;;;;;;11.02;8.07;;;5.80;99.90;;;;;;5035429;28;20263;-81
2023/04/02 05:38:55;;;;;;;10.52;9.43;;;5.80;99.90;;;;;;5035403;28;20209;-81
2023/04/02 05:41:30;;;;;;;11.02;9.75;;;5.70;99.90;;;;;;5034928;28;20179;-81
2023/04/02 05:44:02;;;;;;;10.82;9.25;;;5.70;99.90;;;;;;5035147;28;20174;-80
2023/04/02 05:46:35;;;;;;;15.13;9.30;;;5.60;99.90;;;;;;5035533;28;20576;-80
2023/04/02 05:49:08;;;;;;;13.38;9.70;;;5.70;99.90;;;;;;5035530;28;20219;-80
2023/04/02 05:51:44;;;;;;;12.30;11.00;;;5.70;99.90;;;;;;5035370;28;20207;-79
2023/04/02 05:54:30;;;;;;;9.93;8.93;;;5.70;99.90;;;;;;5035482;28;20173;-80
2023/04/02 05:57:12;;;;;;;10.68;8.98;;;5.70;99.90;;;;;;5034703;28;20177;-81
2023/04/02 05:59:46;;;;;;;9.88;8.88;;;5.70;99.90;;;;;;5035135;28;20184;-81
2023/04/02 06:02:30;;;;;;;10.95;9.85;;;5.70;99.90;;;;;;5035604;28;20201;-80
2023/04/02 06:05:00;;;;;;;9.95;8.23;;;5.70;99.90;;;;;;5035470;28;20204;-80
2023/04/02 06:07:51;;;;;;;10.55;8.98;;;5.60;99.90;;;;;;5036132;28;20197;-80
2023/04/02 06:10:22;;;;;;;9.80;8.80;;;5.70;99.90;;;;;;5038038;28;20568;-81
2023/04/02 06:13:02;;;;;;;8.98;8.07;;;5.70;99.90;;;;;;5038858;28;20186;-79
2023/04/02 06:15:30;;;;;;;8.68;7.75;;;5.70;99.90;;;;;;5038318;28;20242;-78
2023/04/02 06:18:05;;;;;;;9.65;8.30;;;5.70;99.90;;;;;;5038728;28;20616;-80
2023/04/02 06:20:31;;;;;;;14.73;9.52;;;5.70;99.90;;;;;;5037919;28;20542;-80
2023/04/02 06:23:12;;;;;;;10.48;8.93;;;5.70;99.90;;;;;;5038815;28;20241;-80
2023/04/02 06:25:47;;;;;;;9.70;8.70;;;5.60;99.90;;;;;;5038278;28;20178;-80
2023/04/02 06:28:18;;;;;;;10.55;9.50;;;5.60;99.90;;;;;;5038489;28;20180;-81
2023/04/02 06:30:46;;;;;;;12.30;10.20;;;5.60;99.90;;;;;;5038285;28;20213;-80
2023/04/02 06:33:12;;;;;;;12.52;9.48;;;5.60;99.90;;;;;;5051076;28;20194;-80
2023/04/02 06:35:41;;;;;;;11.43;10.13;;;5.60;99.90;;;;;;5058059;28;20235;-80
2023/04/02 06:38:16;;;;;;;11.27;10.07;;;5.60;99.90;;;;;;5058131;28;20181;-80
2023/04/02 06:40:51;;;;;;;13.73;10.48;;;5.50;99.90;;;;;;5057861;28;20182;-80
2023/04/02 06:43:27;;;;;;;12.30;11.05;;;5.50;99.90;;;;;;5058058;28;20181;-80
2023/04/02 06:45:56;;;;;;;12.25;10.45;;;5.50;99.90;;;;;;5058318;28;20179;-80
2023/04/02 06:48:24;;;;;;;12.48;10.63;;;5.50;99.90;;;;;;5057929;28;20269;-81
2023/04/02 06:51:02;;;;;;;13.60;10.93;;;5.50;99.90;;;;;;5057659;28;20597;-80
2023/04/02 06:53:34;;;;;;;16.40;10.63;;;5.60;99.90;;;;;;5057892;28;20241;-81
2023/04/02 06:56:30;;;;;;;15.70;10.93;;;5.50;99.90;;;;;;5058119;28;20183;-80
2023/04/02 06:58:57;;;;;;;16.38;12.50;;;5.50;99.90;;;;;;5049377;28;20193;-80
2023/04/02 07:01:29;;;;;;;13.25;11.88;;;5.50;99.90;;;;;;5057235;28;20204;-80
2023/04/02 07:03:56;;;;;;;16.33;12.43;;;5.50;99.90;;;;;;5058191;28;20178;-80
2023/04/02 07:06:22;;;;;;;12.55;10.90;;;5.50;99.90;;;;;;5057306;28;20179;-81
2023/04/02 07:08:48;;;;;;;16.17;10.97;;;5.50;99.90;;;;;;5057881;28;20182;-80
2023/04/02 07:11:15;;;;;;;13.35;10.32;;;5.50;99.90;;;;;;5057982;28;20254;-80
2023/04/02 07:13:42;;;;;;;13.77;9.50;;;5.50;99.90;;;;;;5057033;28;20228;-80
2023/04/02 07:16:15;;;;;;;15.07;8.80;;;5.50;99.90;;;;;;5056173;28;20237;-80
2023/04/02 07:18:41;;;;;;;15.45;9.68;;;5.40;99.90;;;;;;5049947;28;20200;-80
2023/04/02 07:21:07;;;;;;;16.02;9.23;;;5.40;99.90;;;;;;5047594;28;20185;-82
2023/04/02 07:23:32;;;;;;;11.47;8.80;;;5.40;99.90;;;;;;5045557;28;20617;-81
2023/04/02 07:25:58;;;;;;;12.00;8.23;;;5.40;99.90;;;;;;5054106;28;20186;-79
2023/04/02 07:28:24;;;;;;;12.60;9.57;;;5.40;99.90;;;;;;5056498;28;20251;-80
2023/04/02 07:30:51;;;;;;;13.77;7.95;;;5.50;99.90;;;;;;5056650;28;20220;-80
2023/04/02 07:33:19;;;;;;;10.10;8.85;;;5.50;99.90;;;;;;5056648;28;20203;-80
2023/04/02 07:35:46;;;;;;;11.60;8.55;;;5.50;99.90;;;;;;5056462;28;20175;-80
2023/04/02 07:38:11;;;;;;;11.95;9.20;;;5.60;99.90;;;;;;5056486;28;20181;-80
2023/04/02 07:40:37;;;;;;;14.37;8.23;;;5.60;99.90;;;;;;5056060;28;20765;-80
2023/04/02 07:43:03;;;;;;;15.07;9.90;;;5.50;99.90;;;;;;5056394;28;20509;-80
2023/04/02 07:45:30;;;;;;;11.93;8.40;;;5.60;99.90;;;;;;5056716;28;20419;-80
2023/04/02 07:47:55;;;;;;;10.40;8.65;;;5.60;99.90;;;;;;5056280;28;20186;-80
2023/04/02 07:50:21;;;;;;;11.77;8.93;;;5.50;99.90;;;;;;5056863;28;20561;-82
2023/04/02 07:52:47;;;;;;;15.00;8.60;;;5.60;99.90;;;;;;5056231;28;20193;-80
2023/04/02 07:55:14;;;;;;;9.77;7.70;;;5.60;99.90;;;;;;5055967;28;20826;-80
2023/04/02 07:57:50;;;;;;;11.13;6.88;;;5.60;99.90;;;;;;5056142;28;20182;-80
2023/04/02 08:00:16;;;;;;;11.57;8.02;;;5.60;99.90;;;;;;5056192;28;20260;-80
2023/04/02 08:02:42;;;;;;;13.02;8.70;;;5.60;99.90;;;;;;5055905;28;20185;-80
2023/04/02 08:05:09;;;;;;;11.57;9.00;;;5.60;99.90;;;;;;5055539;28;20519;-80
2023/04/02 08:07:35;;;;;;;10.30;8.23;;;5.60;99.90;;;;;;5055713;28;20208;-81
2023/04/02 08:10:01;;;;;;;10.90;8.13;;;5.60;99.90;;;;;;5055530;28;20216;-79
2023/04/02 08:12:27;;;;;;;13.82;9.30;;;5.50;99.90;;;;;;5055405;28;20276;-80
2023/04/02 08:14:52;;;;;;;12.87;8.60;;;5.50;99.90;;;;;;5055685;28;20263;-80
2023/04/02 08:17:18;;;;;;;10.30;6.40;;;5.50;99.90;;;;;;5056117;28;20272;-80
2023/04/02 08:19:44;;;;;;;10.77;7.73;;;5.50;99.90;;;;;;5056543;28;20200;-80
2023/04/02 08:22:10;;;;;;;9.90;8.70;;;5.50;99.90;;;;;;5055978;28;20273;-80
2023/04/02 08:24:36;;;;;;;13.77;8.75;;;5.50;99.90;;;;;;5055799;28;20220;-80
2023/04/02 08:27:01;;;;;;;11.10;8.40;;;5.60;99.90;;;;;;5055933;28;20235;-80
2023/04/02 08:29:34;;;;;;;14.60;9.70;;;5.60;99.90;;;;;;5055616;28;20206;-81
2023/04/02 08:32:00;;;;;;;12.38;9.63;;;5.70;99.90;;;;;;5055675;28;20416;-80
2023/04/02 08:34:26;;;;;;;13.55;9.13;;;5.70;99.90;;;;;;5055150;28;20630;-81
2023/04/02 08:36:55;;;;;;;16.05;8.75;;;5.80;99.90;;;;;;5055050;28;20264;-80
2023/04/02 08:39:22;;;;;;;11.27;9.13;;;5.80;99.90;;;;;;5055413;28;20222;-81
2023/04/02 08:42:18;;;;;;;12.35;8.23;;;5.80;99.90;;;;;;5055611;28;20529;-80
2023/04/02 08:45:20;;;;;;;9.80;7.00;;;6.00;99.90;;;;;;5045870;28;20258;-80
2023/04/02 08:47:47;;;;;;;10.02;8.85;;;6.00;99.90;;;;;;5043329;28;20588;-81
2023/04/02 08:50:29;;;;;;;10.43;8.00;;;6.00;99.90;;;;;;5044936;28;20211;-81
2023/04/02 08:52:56;;;;;;;12.95;8.18;;;6.00;99.90;;;;;;5038957;28;20190;-80
2023/04/02 08:55:46;;;;;;;10.82;8.80;;;6.00;99.90;;;;;;5041295;28;20179;-80
2023/04/02 08:58:30;;;;;;;11.43;7.40;;;6.00;99.90;;;;;;5042730;28;20245;-80
2023/04/02 09:00:59;;;;;;;11.02;7.60;;;5.90;99.90;;;;;;5044489;28;20637;-80
2023/04/02 09:03:34;;;;;;;9.93;7.35;;;5.80;99.90;;;;;;5040572;28;20183;-80
2023/04/02 09:06:02;;;;;;;10.77;7.78;;;5.90;99.90;;;;;;5035357;28;20639;-80
2023/04/02 09:08:31;;;;;;;11.20;7.68;;;5.90;99.90;;;;;;5034879;28;20198;-81
2023/04/02 09:11:22;;;;;;;7.85;7.05;;;5.90;99.90;;;;;;5035697;28;20658;-80
2023/04/02 09:13:55;;;;;;;9.25;6.75;;;6.00;99.90;;;;;;5034895;28;20273;-80
2023/04/02 09:16:43;;;;;;;16.30;8.00;;;6.00;99.90;;;;;;5039116;28;20252;-80
2023/04/02 09:19:39;;;;;;;9.38;7.10;;;6.00;99.90;;;;;;5042103;28;20187;-80
2023/04/02 09:22:19;;;;;;;11.27;6.97;;;6.10;99.90;;;;;;5044871;28;20186;-83
2023/04/02 09:24:51;;;;;;;9.25;7.10;;;6.10;99.90;;;;;;5054480;28;20188;-81
2023/04/02 09:27:19;;;;;;;8.30;7.10;;;6.20;99.90;;;;;;5054619;28;20235;-81
2023/04/02 09:29:48;;;;;;;9.25;5.68;;;6.30;99.90;;;;;;5054791;28;20203;-80
2023/04/02 09:32:53;;;;;;;11.90;8.35;;;6.20;99.90;;;;;;5055063;28;20224;-80
2023/04/02 09:35:22;;;;;;;8.13;6.75;;;6.20;99.90;;;;;;5032651;28;20548;-81
2023/04/02 09:38:16;;;;;;;8.68;6.68;;;6.20;99.90;;;;;;5051323;28;20193;-79
2023/04/02 09:41:02;;;;;;;8.50;7.20;;;6.20;99.90;;;;;;5054449;28;20652;-81
2023/04/02 09:43:37;;;;;;;10.82;7.35;;;6.30;99.90;;;;;;5057014;28;20187;-81
2023/04/02 09:46:17;;;;;;;10.27;6.53;;;6.20;99.90;;;;;;5058357;28;20181;-80
2023/04/02 09:48:48;;;;;;;12.70;6.63;;;6.20;99.90;;;;;;5058505;28;20177;-81
2023/04/02 09:51:23;;;;;;;11.20;7.38;;;6.20;99.90;;;;;;5049796;28;20598;-81
2023/04/02 09:54:15;;;;;;;12.93;7.60;;;6.30;99.90;;;;;;5022461;28;20186;-81
2023/04/02 09:56:59;;;;;;;10.45;6.75;;;6.40;99.90;;;;;;5015320;28;20207;-83
2023/04/02 09:59:26;;;;;;;10.18;6.85;;;6.50;99.90;;;;;;5017154;28;20182;-83
2023/04/02 10:01:54;;;;;;;9.88;7.10;;;6.50;99.90;;;;;;5016891;28;20441;-82
2023/04/02 10:05:02;;;;;;;14.38;6.50;;;6.40;99.90;;;;;;5018134;28;20241;-81
2023/04/02 10:07:33;;;;;;;9.02;6.72;;;6.40;99.90;;;;;;4996190;28;20424;-81
2023/04/02 10:10:16;;;;;;;7.60;6.30;;;6.50;99.90;;;;;;4995881;28;20435;-80
2023/04/02 10:12:47;;;;;;;8.95;7.00;;;6.40;99.90;;;;;;5008389;28;20554;-81
2023/04/02 10:15:28;;;;;;;9.07;6.65;;;6.50;99.90;;;;;;5018152;28;20580;-82
2023/04/02 10:18:11;;;;;;;6.85;5.85;;;6.60;99.90;;;;;;5018117;28;20175;-80
2023/04/02 10:20:40;;;;;;;11.88;6.15;;;6.70;99.90;;;;;;5018337;28;20182;-81
2023/04/02 10:23:10;;;;;;;8.73;6.03;;;6.80;99.90;;;;;;5041104;28;20244;-81
2023/04/02 10:25:42;;;;;;;9.98;6.32;;;6.70;99.90;;;;;;5050763;28;20223;-81
2023/04/02 10:28:22;;;;;;;9.15;5.72;;;6.60;99.90;;;;;;5057387;28;20200;-80
2023/04/02 10:31:08;;;;;;;8.02;5.55;;;6.60;99.90;;;;;;5058255;28;20212;-80
2023/04/02 10:33:43;;;;;;;8.27;6.40;;;6.60;99.90;;;;;;5049573;28;20275;-79
2023/04/02 10:36:26;;;;;;;7.97;5.28;;;6.70;99.90;;;;;;5034376;28;20207;-79
2023/04/02 10:39:18;;;;;;;8.05;5.65;;;6.80;99.90;;;;;;5040099;28;20209;-80
2023/04/02 10:41:48;;;;;;;5.97;4.75;;;7.00;99.90;;;;;;5037350;28;20269;-79
2023/04/02 10:44:28;;;;;;;9.75;6.65;;;7.10;99.90;;;;;;5036706;28;20352;-80
2023/04/02 10:47:00;;;;;;;8.88;6.18;;;7.20;99.90;;;;;;5045963;28;20226;-80
2023/04/02 10:49:57;;;;;;;8.73;5.57;;;7.20;99.90;;;;;;5047642;28;20665;-81
2023/04/02 10:52:30;;;;;;;6.15;5.10;;;7.30;99.90;;;;;;5032781;28;20183;-79
2023/04/02 10:55:13;;;;;;;5.70;4.72;;;7.20;99.90;;;;;;5040517;28;20247;-79
2023/04/02 10:57:40;;;;;;;5.88;5.10;;;7.10;99.90;;;;;;5048695;28;20189;-79
2023/04/02 11:00:14;;;;;;;6.63;4.72;;;7.20;99.90;;;;;;5057435;28;20637;-80
2023/04/02 11:03:22;;;;;;;5.55;4.60;;;7.10;99.90;;;;;;5057128;28;20635;-80
2023/04/02 11:05:50;;;;;;;9.98;7.80;;;7.00;99.90;;;;;;5056976;28;20619;-79
2023/04/02 11:08:24;;;;;;;17.00;10.32;;;7.00;99.90;;;;;;5057700;28;20233;-79
2023/04/02 11:11:12;;;;;;;8.43;6.65;;;7.10;99.90;;;;;;5054629;28;20250;-78
2023/04/02 11:13:40;;;;;;;18.17;11.57;;;7.30;99.90;;;;;;5038038;28;20265;-80
2023/04/02 11:16:06;;;;;;;11.15;8.90;;;7.40;99.90;;;;;;5037204;28;20651;-79
2023/04/02 11:18:37;;;;;;;27.17;13.90;;;7.60;99.90;;;;;;5036952;28;20190;-80
2023/04/02 11:21:24;;;;;;;54.25;21.40;;;7.80;99.90;;;;;;5035648;28;20408;-80
2023/04/02 11:23:58;;;;;;;20.00;9.75;;;7.90;99.90;;;;;;5035969;28;20184;-80
2023/04/02 11:26:33;;;;;;;25.63;13.98;;;8.00;99.90;;;;;;5035526;28;20197;-81
2023/04/02 11:29:28;;;;;;;15.90;9.85;;;8.10;99.90;;;;;;5037278;28;20231;-79
2023/04/02 11:32:12;;;;;;;20.50;9.85;;;8.10;99.90;;;;;;5036068;28;20186;-80
2023/04/02 11:34:40;;;;;;;8.48;7.55;;;8.30;99.90;;;;;;5035701;28;20170;-80
2023/04/02 11:37:29;;;;;;;5.32;4.25;;;8.70;99.90;;;;;;5036768;28;20190;-79
2023/04/02 11:39:58;;;;;;;7.68;5.85;;;8.90;99.90;;;;;;5036084;28;20201;-80
2023/04/02 11:42:35;;;;;;;17.20;10.85;;;9.20;99.90;;;;;;5035952;28;20588;-80
2023/04/02 11:45:22;;;;;;;18.95;11.07;;;9.30;99.90;;;;;;5036586;28;20285;-80
2023/04/02 11:48:00;;;;;;;6.43;4.93;;;9.40;99.90;;;;;;5036275;28;20607;-81
2023/04/02 11:50:40;;;;;;;7.60;5.97;;;9.30;99.90;;;;;;5035050;28;20728;-81
2023/04/02 11:53:14;;;;;;;9.50;7.05;;;9.20;99.90;;;;;;5032129;28;20183;-81
2023/04/02 11:55:42;;;;;;;8.45;4.90;;;9.10;99.90;;;;;;5028593;28;20182;-81
2023/04/02 11:58:29;;;;;;;9.20;5.63;;;9.00;99.90;;;;;;5035162;28;20174;-81
2023/04/02 12:01:04;;;;;;;4.22;3.78;;;9.10;99.90;;;;;;5035744;28;21004;-81
2023/04/02 12:03:57;;;;;;;8.75;5.82;;;9.30;99.90;;;;;;5035092;28;20525;-82
2023/04/02 12:06:47;;;;;;;4.30;3.65;;;9.50;99.90;;;;;;5045435;28;20175;-81
2023/04/02 12:09:29;;;;;;;8.68;5.95;;;9.50;99.90;;;;;;5038698;28;20186;-81
2023/04/02 12:11:58;;;;;;;8.95;7.10;;;9.50;99.90;;;;;;5035171;28;20192;-81
2023/04/02 12:14:42;;;;;;;10.57;6.03;;;9.50;99.90;;;;;;5042408;28;20234;-81
2023/04/02 12:17:35;;;;;;;11.68;6.70;;;9.40;99.90;;;;;;5055773;28;20181;-81
2023/04/02 12:20:01;;;;;;;6.05;4.97;;;9.40;99.90;;;;;;5054486;28;20231;-81
2023/04/02 12:22:31;;;;;;;6.27;5.17;;;9.70;99.90;;;;;;5055102;28;20177;-81
2023/04/02 12:25:25;;;;;;;27.77;16.02;;;10.10;99.90;;;;;;5055211;28;20186;-81
2023/04/02 12:28:03;;;;;;;15.30;10.35;;;10.20;99.90;;;;;;5054425;28;20260;-81
2023/04/02 12:30:29;;;;;;;56.72;26.10;;;10.40;99.90;;;;;;5055209;28;20256;-81
2023/04/02 12:32:56;;;;;;;48.70;24.70;;;10.70;99.90;;;;;;5054870;28;20231;-82
2023/04/02 12:35:29;;;;;;;33.88;16.88;;;10.50;99.90;;;;;;5054562;28;20291;-81
2023/04/02 12:37:56;;;;;;;60.03;31.80;;;10.40;99.90;;;;;;5055064;28;20184;-81
2023/04/02 12:40:23;;;;;;;9.55;7.75;;;10.20;99.90;;;;;;5054524;28;20679;-81
2023/04/02 12:42:49;;;;;;;5.57;4.57;;;10.20;99.90;;;;;;5055020;28;20185;-80
2023/04/02 12:45:23;;;;;;;5.37;4.17;;;9.90;99.90;;;;;;5052049;28;20679;-81
2023/04/02 12:47:49;;;;;;;10.93;5.70;;;9.80;99.90;;;;;;5034768;28;20416;-82
2023/04/02 12:50:16;;;;;;;9.75;8.10;;;9.80;99.90;;;;;;5035227;28;20210;-81
2023/04/02 12:52:48;;;;;;;6.05;4.93;;;9.80;99.90;;;;;;5034902;28;20235;-81
2023/04/02 12:55:23;;;;;;;5.88;4.38;;;9.70;99.90;;;;;;5025265;28;20212;-81
2023/04/02 12:57:55;;;;;;;4.85;3.92;;;9.90;99.90;;;;;;5016739;28;20228;-81
2023/04/02 13:00:20;;;;;;;6.07;4.65;;;9.90;99.90;;;;;;5015818;28;20221;-81
2023/04/02 13:02:57;;;;;;;5.40;4.47;;;10.00;99.90;;;;;;5014508;28;20179;-81
2023/04/02 13:05:35;;;;;;;5.57;5.07;;;9.90;99.90;;;;;;5015386;28;20205;-81
2023/04/02 13:08:02;;;;;;;4.25;3.50;;;9.70;99.90;;;;;;5015114;28;20181;-81
2023/04/02 13:10:28;;;;;;;7.80;4.13;;;9.60;99.90;;;;;;5014128;28;20221;-81
2023/04/02 13:12:56;;;;;;;5.80;4.50;;;9.60;99.90;;;;;;5015755;28;20194;-81
2023/04/02 13:15:26;;;;;;;7.70;5.18;;;9.50;99.90;;;;;;5014953;28;20478;-81
2023/04/02 13:18:18;;;;;;;5.50;4.35;;;9.50;99.90;;;;;;5017174;28;20262;-81
2023/04/02 13:20:53;;;;;;;8.65;4.68;;;9.30;99.90;;;;;;5018700;28;20269;-80
2023/04/02 13:23:28;;;;;;;6.07;3.85;;;9.40;99.90;;;;;;5019701;28;20547;-81
2023/04/02 13:25:55;;;;;;;7.28;4.60;;;9.30;99.90;;;;;;5017871;28;20171;-81
2023/04/02 13:28:21;;;;;;;5.63;4.32;;;9.40;99.90;;;;;;5019326;28;20566;-81
2023/04/02 13:30:47;;;;;;;5.78;4.43;;;9.30;99.90;;;;;;5019009;28;20225;-81
2023/04/02 13:33:14;;;;;;;4.82;3.78;;;9.10;99.90;;;;;;5018452;28;20270;-81